Time;durP1;ratioP1;P1;durP2;ratioP2;P2;SDS_P1;SDS_P2;PMS_P1;PMS_P2;Temp;Humidity;BMP_temperature;BMP_pressure;BME280_temperature;BME280_humidity;BME280_pressure;Samples;Min_cycle;Max_cycle;Signal;HPM_P1;HPM_P2
2023/06/02 00:01:31;;;;;;;;;13.33;12.33;26.60;48.30;;;;;;111460;1239;49272;-67
2023/06/02 00:04:01;;;;;;;;;12.00;11.00;26.60;48.40;;;;;;111427;1239;49695;-68
2023/06/02 00:06:30;;;;;;;;;14.00;13.00;26.60;47.90;;;;;;111520;1239;53702;-68
2023/06/02 00:08:58;;;;;;;;;14.00;13.00;26.60;48.40;;;;;;111509;1238;46005;-68
2023/06/02 00:11:25;;;;;;;;;13.00;12.25;26.60;48.40;;;;;;111275;1244;50123;-68
2023/06/02 00:13:53;;;;;;;;;12.67;11.67;26.50;48.30;;;;;;111228;1244;50005;-68
2023/06/02 00:16:19;;;;;;;;;14.75;11.75;26.60;48.40;;;;;;111284;1244;54270;-67
2023/06/02 00:18:47;;;;;;;;;13.00;11.00;26.50;48.40;;;;;;111266;1238;44256;-68
2023/06/02 00:21:15;;;;;;;;;14.00;12.50;26.50;48.40;;;;;;111255;1244;49358;-67
2023/06/02 00:23:42;;;;;;;;;14.00;13.00;26.50;48.40;;;;;;111273;1240;49005;-68
2023/06/02 00:26:09;;;;;;;;;13.75;12.75;26.50;48.40;;;;;;111398;1238;53748;-68
2023/06/02 00:28:36;;;;;;;;;14.00;13.00;26.50;48.40;;;;;;111292;1244;45615;-67
2023/06/02 00:31:03;;;;;;;;;13.00;12.25;26.50;48.40;;;;;;111221;1238;49955;-68
2023/06/02 00:33:30;;;;;;;;;14.25;13.25;26.50;48.50;;;;;;111266;1243;50194;-68
2023/06/02 00:35:57;;;;;;;;;13.33;11.00;26.50;48.50;;;;;;111296;1238;53632;-68
2023/06/02 00:38:24;;;;;;;;;16.75;12.25;26.50;48.50;;;;;;111260;1238;45529;-68
2023/06/02 00:40:51;;;;;;;;;13.25;12.00;26.50;48.50;;;;;;111409;1244;49355;-68
2023/06/02 00:43:18;;;;;;;;;12.75;11.75;26.40;48.40;;;;;;111273;1244;49974;-68
2023/06/02 00:45:45;;;;;;;;;12.00;11.00;26.40;48.60;;;;;;111176;1243;54345;-68
2023/06/02 00:48:12;;;;;;;;;12.00;11.00;26.50;48.50;;;;;;111219;1240;44155;-68
2023/06/02 00:50:39;;;;;;;;;13.00;12.00;26.50;48.00;;;;;;111225;1243;50301;-68
2023/06/02 00:53:06;;;;;;;;;14.00;12.00;26.40;48.40;;;;;;111280;1244;49661;-68
2023/06/02 00:55:33;;;;;;;;;12.25;11.50;26.40;49.00;;;;;;111217;1238;54721;-69
2023/06/02 00:58:03;;;;;;;;;13.75;12.75;26.40;48.70;;;;;;111281;1244;44883;-69
2023/06/02 01:00:36;;;;;;;;;14.00;12.00;26.40;48.50;;;;;;111161;1241;49778;-69
2023/06/02 01:03:04;;;;;;;;;11.00;10.00;26.40;48.50;;;;;;111315;1238;50139;-69
2023/06/02 01:05:31;;;;;;;;;14.50;12.00;26.40;48.50;;;;;;111366;1238;53822;-68
2023/06/02 01:08:01;;;;;;;;;12.33;10.00;26.40;48.50;;;;;;111194;1243;44523;-69
2023/06/02 01:10:29;;;;;;;;;14.33;11.67;26.40;48.50;;;;;;111283;1243;48927;-68
2023/06/02 01:12:56;;;;;;;;;13.00;12.00;26.40;48.40;;;;;;111268;1244;48977;-68
2023/06/02 01:15:23;;;;;;;;;12.25;11.25;26.40;48.50;;;;;;111326;1241;54667;-68
2023/06/02 01:17:50;;;;;;;;;13.00;12.00;26.40;48.70;;;;;;111185;1242;44467;-69
2023/06/02 01:20:21;;;;;;;;;14.50;13.00;26.40;48.70;;;;;;111344;1243;50203;-68
2023/06/02 01:23:15;;;;;;;;;14.25;13.25;26.40;48.50;;;;;;110678;1244;775692;-69
2023/06/02 01:25:44;;;;;;;;;13.00;12.00;26.30;48.40;;;;;;111308;1241;54119;-68
2023/06/02 01:28:11;;;;;;;;;12.25;11.25;26.30;48.50;;;;;;111281;1240;44917;-68
2023/06/02 01:30:38;;;;;;;;;11.50;10.50;26.40;48.40;;;;;;111233;1238;50034;-69
2023/06/02 01:33:15;;;;;;;;;13.75;12.75;26.30;48.40;;;;;;111256;1238;49154;-68
2023/06/02 01:35:47;;;;;;;;;12.00;11.00;26.30;48.60;;;;;;111302;1243;54746;-68
2023/06/02 01:38:16;;;;;;;;;12.75;11.75;26.30;48.40;;;;;;111246;1243;45409;-71
2023/06/02 01:40:44;;;;;;;;;14.00;13.00;26.30;48.40;;;;;;111384;1238;49246;-68
2023/06/02 01:43:12;;;;;;;;;12.00;11.00;26.30;48.40;;;;;;111251;1242;48889;-68
2023/06/02 01:45:42;;;;;;;;;13.25;12.25;26.30;48.40;;;;;;111245;1241;53908;-67
2023/06/02 01:48:10;;;;;;;;;11.00;10.00;26.30;48.40;;;;;;111301;1244;44767;-69
2023/06/02 01:50:37;;;;;;;;;14.67;11.00;26.30;48.40;;;;;;111311;1243;49148;-68
2023/06/02 01:53:05;;;;;;;;;13.00;12.00;26.30;48.40;;;;;;111268;1239;50496;-69
2023/06/02 01:55:33;;;;;;;;;15.50;14.25;26.20;48.40;;;;;;111303;1244;54146;-68
2023/06/02 01:58:00;;;;;;;;;14.25;13.00;26.20;48.40;;;;;;111271;1238;44276;-68
2023/06/02 02:00:27;;;;;;;;;10.00;9.00;26.20;48.40;;;;;;111243;1240;49471;-67
2023/06/02 02:02:56;;;;;;;;;12.00;11.00;26.20;48.40;;;;;;111141;1244;49855;-68
2023/06/02 02:05:23;;;;;;;;;13.00;10.00;26.20;48.40;;;;;;111316;1242;53369;-68
2023/06/02 02:07:50;;;;;;;;;13.25;12.25;26.20;48.40;;;;;;111285;1238;44770;-68
2023/06/02 02:10:18;;;;;;;;;11.50;10.00;26.20;48.50;;;;;;111323;1241;49726;-68
2023/06/02 02:12:45;;;;;;;;;11.25;10.50;26.20;48.40;;;;;;111495;1241;49427;-68
2023/06/02 02:15:13;;;;;;;;;13.50;12.50;26.10;48.40;;;;;;111499;1239;53658;-69
2023/06/02 02:17:44;;;;;;;;;12.50;11.50;26.10;48.40;;;;;;111512;1238;44253;-68
2023/06/02 02:20:13;;;;;;;;;14.00;13.00;26.10;48.60;;;;;;111341;1244;50636;-68
2023/06/02 02:22:40;;;;;;;;;13.00;12.00;26.10;48.30;;;;;;111432;1241;49236;-68
2023/06/02 02:25:08;;;;;;;;;12.25;11.00;26.10;48.30;;;;;;111423;1243;54061;-69
2023/06/02 02:27:35;;;;;;;;;12.50;11.00;26.10;48.40;;;;;;111660;1241;44929;-67
2023/06/02 02:30:03;;;;;;;;;12.33;11.33;26.10;48.40;;;;;;111667;1243;50081;-67
2023/06/02 02:32:33;;;;;;;;;11.50;10.25;26.10;48.40;;;;;;111442;1242;49698;-68
2023/06/02 02:35:00;;;;;;;;;13.67;10.67;26.10;48.40;;;;;;111426;1238;54001;-69
2023/06/02 02:37:30;;;;;;;;;12.00;11.00;26.10;48.40;;;;;;111492;1241;44838;-68
2023/06/02 02:39:57;;;;;;;;;14.00;13.00;26.10;48.40;;;;;;111706;1237;48950;-67
2023/06/02 02:42:24;;;;;;;;;14.00;13.00;26.10;48.40;;;;;;111445;1243;50393;-68
2023/06/02 02:44:51;;;;;;;;;10.00;9.00;26.10;48.40;;;;;;111221;1244;54520;-69
2023/06/02 02:47:18;;;;;;;;;13.00;12.00;26.10;48.40;;;;;;111453;1241;44427;-67
2023/06/02 02:49:46;;;;;;;;;12.00;11.00;26.10;48.60;;;;;;111538;1240;50167;-68
2023/06/02 02:52:13;;;;;;;;;12.75;11.75;26.10;48.40;;;;;;111525;1241;49735;-68
2023/06/02 02:54:40;;;;;;;;;12.75;12.00;26.00;48.40;;;;;;111441;1240;53726;-69
2023/06/02 02:57:07;;;;;;;;;12.00;11.00;26.00;48.30;;;;;;111437;1241;44784;-68
2023/06/02 02:59:35;;;;;;;;;12.00;11.00;26.00;48.40;;;;;;111333;1242;49329;-68
2023/06/02 03:02:05;;;;;;;;;13.75;12.75;26.00;48.90;;;;;;111549;1244;49980;-68
2023/06/02 03:04:32;;;;;;;;;12.75;11.75;26.00;48.30;;;;;;111490;1241;54938;-68
2023/06/02 03:07:01;;;;;;;;;10.67;9.67;26.00;48.30;;;;;;111232;1241;44661;-69
2023/06/02 03:09:28;;;;;;;;;11.00;10.00;26.00;48.30;;;;;;111335;1244;48916;-69
2023/06/02 03:11:57;;;;;;;;;11.25;10.00;26.00;48.30;;;;;;111543;1238;48905;-69
2023/06/02 03:14:27;;;;;;;;;11.25;10.00;26.00;48.30;;;;;;111418;1238;54202;-68
2023/06/02 03:16:56;;;;;;;;;13.00;11.75;26.00;48.30;;;;;;111419;1241;45408;-68
2023/06/02 03:19:24;;;;;;;;;14.25;11.75;26.00;48.30;;;;;;111476;1241;49793;-67
2023/06/02 03:21:51;;;;;;;;;13.00;12.00;26.00;48.30;;;;;;111417;1241;49426;-69
2023/06/02 03:24:19;;;;;;;;;11.75;10.50;26.00;48.20;;;;;;111358;1240;54360;-68
2023/06/02 03:26:47;;;;;;;;;13.00;10.00;26.00;48.30;;;;;;111494;1243;44713;-67
2023/06/02 03:29:14;;;;;;;;;12.75;10.75;26.00;48.30;;;;;;111509;1238;50021;-68
2023/06/02 03:31:41;;;;;;;;;11.00;10.00;26.00;48.30;;;;;;111463;1241;50342;-68
2023/06/02 03:34:08;;;;;;;;;13.25;12.25;26.00;48.30;;;;;;111507;1241;53847;-68
2023/06/02 03:36:37;;;;;;;;;12.00;11.00;25.90;48.40;;;;;;111426;1243;44339;-68
2023/06/02 03:39:09;;;;;;;;;15.00;12.00;26.00;48.30;;;;;;111440;1238;48707;-68
2023/06/02 03:41:37;;;;;;;;;14.00;11.25;26.00;48.30;;;;;;111221;1243;49507;-68
2023/06/02 03:44:05;;;;;;;;;14.00;11.50;26.00;48.40;;;;;;111439;1242;54312;-69
2023/06/02 03:46:33;;;;;;;;;13.75;11.00;25.90;48.30;;;;;;111578;1241;44794;-69
2023/06/02 03:49:00;;;;;;;;;12.00;11.00;25.90;48.30;;;;;;111499;1241;49101;-68
2023/06/02 03:51:27;;;;;;;;;11.50;10.50;25.90;48.20;;;;;;111256;1244;50174;-68
2023/06/02 03:53:54;;;;;;;;;13.75;12.75;25.90;48.30;;;;;;111396;1241;54079;-68
2023/06/02 03:56:22;;;;;;;;;13.00;11.00;25.90;48.50;;;;;;111473;1240;44937;-68
2023/06/02 03:58:49;;;;;;;;;11.33;10.33;25.90;48.30;;;;;;111315;1241;48767;-68
2023/06/02 04:01:17;;;;;;;;;12.00;11.00;25.90;48.30;;;;;;111480;1237;49888;-68
2023/06/02 04:03:44;;;;;;;;;10.67;9.00;25.90;48.30;;;;;;111389;1238;53480;-68
2023/06/02 04:06:12;;;;;;;;;12.00;11.00;25.90;48.30;;;;;;111484;1241;45013;-69
2023/06/02 04:08:39;;;;;;;;;14.67;13.33;25.90;48.30;;;;;;111472;1241;49694;-69
2023/06/02 04:11:10;;;;;;;;;13.75;11.00;25.90;48.30;;;;;;111331;1242;49774;-68
2023/06/02 04:13:37;;;;;;;;;11.75;10.50;25.90;48.20;;;;;;111242;1244;53514;-70
2023/06/02 04:16:04;;;;;;;;;13.00;11.50;25.90;48.20;;;;;;111219;1240;44460;-68
2023/06/02 04:18:31;;;;;;;;;12.67;11.67;25.90;48.40;;;;;;111306;1240;49604;-68
2023/06/02 04:20:58;;;;;;;;;13.00;12.00;25.90;48.30;;;;;;111245;1238;50184;-70
2023/06/02 04:23:26;;;;;;;;;13.00;12.00;25.90;48.30;;;;;;111288;1239;55032;-68
2023/06/02 04:25:53;;;;;;;;;12.00;11.00;25.90;48.40;;;;;;111356;1238;44349;-69
2023/06/02 04:28:21;;;;;;;;;11.50;10.25;25.90;48.40;;;;;;111199;1239;48754;-70
2023/06/02 04:30:52;;;;;;;;;11.00;10.00;25.90;48.40;;;;;;111240;1240;49596;-67
2023/06/02 04:33:19;;;;;;;;;11.75;10.50;25.80;48.00;;;;;;111302;1238;53555;-68
2023/06/02 04:35:46;;;;;;;;;12.00;11.00;25.80;48.40;;;;;;111304;1240;44114;-68
2023/06/02 04:38:13;;;;;;;;;11.25;10.50;25.80;48.40;;;;;;111275;1238;49502;-68
2023/06/02 04:40:41;;;;;;;;;14.00;11.00;25.80;48.40;;;;;;111268;1244;49518;-68
2023/06/02 04:43:08;;;;;;;;;11.00;10.00;25.80;48.50;;;;;;111229;1240;53700;-67
2023/06/02 04:45:35;;;;;;;;;13.50;11.75;25.80;48.60;;;;;;111287;1243;44746;-68
2023/06/02 04:48:02;;;;;;;;;13.33;12.67;25.80;48.80;;;;;;111237;1238;49246;-68
2023/06/02 04:50:29;;;;;;;;;11.67;10.67;25.80;48.50;;;;;;111252;1243;49088;-69
2023/06/02 04:52:56;;;;;;;;;12.00;11.00;25.80;48.50;;;;;;111257;1244;53949;-69
2023/06/02 04:55:23;;;;;;;;;15.67;12.67;25.80;48.50;;;;;;111292;1238;45651;-67
2023/06/02 04:57:52;;;;;;;;;11.00;10.00;25.80;48.50;;;;;;111231;1243;50021;-68
2023/06/02 05:00:19;;;;;;;;;12.00;10.00;25.80;48.50;;;;;;111174;1244;50410;-69
2023/06/02 05:02:46;;;;;;;;;12.00;11.00;25.80;48.50;;;;;;111254;1238;53501;-69
2023/06/02 05:05:13;;;;;;;;;12.00;11.00;25.80;48.50;;;;;;111281;1243;44895;-68
2023/06/02 05:07:40;;;;;;;;;12.00;11.00;25.80;48.60;;;;;;111278;1244;49612;-67
2023/06/02 05:10:08;;;;;;;;;11.75;10.75;25.70;48.70;;;;;;111395;1244;49501;-68
2023/06/02 05:12:38;;;;;;;;;10.67;9.67;25.80;48.50;;;;;;111484;1238;53392;-66
2023/06/02 05:15:07;;;;;;;;;11.50;10.25;25.70;48.50;;;;;;111527;1244;44182;-68
2023/06/02 05:17:34;;;;;;;;;14.00;12.75;25.70;48.50;;;;;;111385;1241;48962;-68
2023/06/02 05:20:02;;;;;;;;;11.25;10.25;25.70;48.50;;;;;;111529;1238;48893;-69
2023/06/02 05:22:29;;;;;;;;;12.33;11.33;25.70;48.60;;;;;;111436;1240;54125;-68
2023/06/02 05:24:57;;;;;;;;;12.00;11.00;25.70;48.50;;;;;;111468;1241;45170;-69
2023/06/02 05:27:25;;;;;;;;;12.50;11.50;25.80;48.50;;;;;;111475;1241;49440;-68
2023/06/02 05:29:53;;;;;;;;;11.75;10.75;25.80;48.50;;;;;;111490;1237;49166;-68
2023/06/02 05:32:22;;;;;;;;;11.75;10.75;25.70;48.50;;;;;;111467;1238;53427;-69
2023/06/02 05:34:51;;;;;;;;;11.67;9.33;25.70;48.50;;;;;;111458;1242;44068;-68
2023/06/02 05:37:19;;;;;;;;;14.50;12.00;25.70;48.60;;;;;;111511;1241;49899;-68
2023/06/02 05:39:46;;;;;;;;;11.67;10.00;25.70;48.50;;;;;;111508;1238;48909;-68
2023/06/02 05:42:14;;;;;;;;;13.25;12.00;25.70;48.50;;;;;;111444;1238;54452;-68
2023/06/02 05:44:41;;;;;;;;;11.25;10.50;25.70;48.50;;;;;;111463;1238;44387;-69
2023/06/02 05:47:08;;;;;;;;;15.00;12.00;25.70;48.70;;;;;;111251;1243;48828;-69
2023/06/02 05:49:35;;;;;;;;;11.00;10.00;25.70;48.90;;;;;;111455;1241;49920;-67
2023/06/02 05:52:02;;;;;;;;;12.75;11.00;25.70;48.50;;;;;;111426;1238;54064;-67
2023/06/02 05:54:29;;;;;;;;;10.00;9.00;25.70;48.50;;;;;;111502;1243;44572;-68
2023/06/02 05:56:56;;;;;;;;;13.00;12.00;25.70;48.50;;;;;;111492;1237;49389;-68
2023/06/02 05:59:23;;;;;;;;;12.75;11.25;25.70;48.50;;;;;;111460;1241;50319;-68
2023/06/02 06:01:50;;;;;;;;;11.67;10.67;25.70;48.50;;;;;;111432;1243;53491;-68
2023/06/02 06:04:17;;;;;;;;;11.25;10.25;25.70;48.70;;;;;;111478;1238;44633;-68
2023/06/02 06:06:45;;;;;;;;;11.75;10.75;25.70;48.50;;;;;;111512;1237;49451;-68
2023/06/02 06:09:12;;;;;;;;;12.00;11.00;25.70;48.50;;;;;;111334;1240;49532;-69
2023/06/02 06:11:39;;;;;;;;;12.00;11.00;25.70;48.50;;;;;;111234;1243;54124;-69
2023/06/02 06:14:07;;;;;;;;;12.33;11.33;25.70;48.50;;;;;;111544;1240;44786;-70
2023/06/02 06:16:34;;;;;;;;;11.00;10.00;25.60;48.50;;;;;;111485;1242;49615;-69
2023/06/02 06:19:02;;;;;;;;;11.67;10.67;25.70;48.60;;;;;;111413;1243;49605;-69
2023/06/02 06:21:29;;;;;;;;;11.00;10.00;25.70;48.60;;;;;;111470;1239;53538;-72
2023/06/02 06:23:56;;;;;;;;;17.25;12.25;25.70;48.60;;;;;;111560;1238;45184;-68
2023/06/02 06:26:23;;;;;;;;;10.25;9.50;25.70;48.60;;;;;;111483;1238;50262;-69
2023/06/02 06:28:50;;;;;;;;;13.00;10.67;25.70;48.60;;;;;;111416;1241;49289;-70
2023/06/02 06:31:17;;;;;;;;;11.75;10.50;25.70;48.80;;;;;;111452;1238;54246;-67
2023/06/02 06:33:44;;;;;;;;;12.75;11.75;25.70;48.60;;;;;;111503;1241;44226;-69
2023/06/02 06:36:11;;;;;;;;;12.00;11.00;25.70;48.60;;;;;;111569;1241;49578;-68
2023/06/02 06:38:38;;;;;;;;;11.67;10.67;25.70;48.60;;;;;;111405;1243;50009;-68
2023/06/02 06:41:05;;;;;;;;;10.25;9.25;25.70;48.80;;;;;;111466;1238;54246;-69
2023/06/02 06:43:32;;;;;;;;;11.00;10.00;25.70;48.80;;;;;;111500;1241;45264;-68
2023/06/02 06:46:01;;;;;;;;;11.50;10.00;25.70;48.60;;;;;;111579;1241;49088;-74
2023/06/02 06:48:28;;;;;;;;;14.00;11.25;25.70;48.70;;;;;;111436;1237;49708;-72
2023/06/02 06:50:55;;;;;;;;;13.00;11.00;25.70;48.90;;;;;;111464;1241;53780;-70
2023/06/02 06:53:22;;;;;;;;;12.00;11.00;25.70;48.70;;;;;;111477;1241;44958;-69
2023/06/02 06:55:49;;;;;;;;;12.00;11.00;25.70;48.90;;;;;;111461;1241;49483;-70
2023/06/02 06:58:16;;;;;;;;;11.00;10.00;25.70;48.70;;;;;;111503;1241;49252;-69
2023/06/02 07:00:43;;;;;;;;;12.00;11.00;25.70;48.70;;;;;;111409;1242;54507;-70
2023/06/02 07:03:10;;;;;;;;;13.00;12.00;25.70;48.60;;;;;;111416;1241;45012;-70
2023/06/02 07:05:37;;;;;;;;;11.00;9.00;25.70;48.60;;;;;;111474;1241;49272;-70
2023/06/02 07:08:04;;;;;;;;;12.75;11.75;25.70;48.70;;;;;;111239;1241;49760;-70
2023/06/02 07:10:31;;;;;;;;;12.00;10.67;25.70;48.70;;;;;;111230;1244;54107;-69
2023/06/02 07:12:59;;;;;;;;;12.00;11.00;25.70;49.10;;;;;;111257;1238;44973;-68
2023/06/02 07:15:26;;;;;;;;;13.00;10.67;25.80;48.70;;;;;;111326;1239;50559;-68
2023/06/02 07:17:53;;;;;;;;;11.00;9.00;25.80;48.70;;;;;;111215;1242;49062;-69
2023/06/02 07:20:22;;;;;;;;;10.25;9.00;25.80;48.70;;;;;;111276;1240;53381;-69
2023/06/02 07:22:50;;;;;;;;;11.50;10.50;25.80;48.70;;;;;;111267;1240;45000;-68
2023/06/02 07:25:17;;;;;;;;;14.75;12.75;25.80;48.70;;;;;;111239;1244;49451;-68
2023/06/02 07:27:45;;;;;;;;;11.00;10.00;25.80;48.70;;;;;;111245;1238;49007;-69
2023/06/02 07:30:12;;;;;;;;;13.00;11.75;25.80;48.20;;;;;;111231;1238;53933;-68
2023/06/02 07:32:39;;;;;;;;;13.00;11.67;25.90;48.70;;;;;;111250;1241;45706;-68
2023/06/02 07:35:09;;;;;;;;;13.00;10.50;25.90;48.80;;;;;;111206;1241;49099;-68
2023/06/02 07:37:36;;;;;;;;;12.00;11.00;25.90;48.70;;;;;;111209;1242;49535;-69
2023/06/02 07:40:06;;;;;;;;;11.00;10.00;25.90;48.70;;;;;;111243;1240;54163;-68
2023/06/02 07:42:36;;;;;;;;;11.00;10.00;25.90;48.70;;;;;;111215;1242;44898;-68
2023/06/02 07:45:05;;;;;;;;;11.00;10.00;25.90;48.70;;;;;;111310;1238;48773;-68
2023/06/02 07:47:32;;;;;;;;;12.00;11.00;25.90;48.80;;;;;;111250;1239;50319;-69
2023/06/02 07:49:59;;;;;;;;;11.25;10.25;26.00;48.70;;;;;;111344;1238;54687;-69
2023/06/02 07:52:27;;;;;;;;;12.00;11.00;26.00;48.70;;;;;;111353;1244;44236;-68
2023/06/02 07:54:53;;;;;;;;;12.50;10.00;26.00;48.70;;;;;;111260;1238;49224;-69
2023/06/02 07:57:20;;;;;;;;;9.00;8.25;26.00;48.90;;;;;;111208;1238;50651;-67
2023/06/02 07:59:48;;;;;;;;;12.00;10.75;26.00;48.70;;;;;;111208;1242;54159;-68
2023/06/02 08:02:15;;;;;;;;;11.00;10.00;26.10;48.70;;;;;;111248;1238;44638;-69
2023/06/02 08:04:42;;;;;;;;;10.50;9.50;26.10;48.90;;;;;;111218;1238;48857;-68
2023/06/02 08:07:09;;;;;;;;;10.00;9.00;26.10;48.70;;;;;;111243;1244;49179;-68
2023/06/02 08:09:36;;;;;;;;;13.50;10.50;26.20;48.80;;;;;;111246;1238;53738;-68
2023/06/02 08:12:03;;;;;;;;;10.67;9.67;26.20;48.70;;;;;;111550;1237;45028;-68
2023/06/02 08:14:30;;;;;;;;;10.75;9.75;26.20;48.90;;;;;;111513;1241;49090;-68
2023/06/02 08:16:57;;;;;;;;;11.25;10.00;26.20;48.70;;;;;;111436;1238;50127;-70
2023/06/02 08:19:25;;;;;;;;;9.00;8.00;26.30;48.80;;;;;;111503;1238;53526;-70
2023/06/02 08:21:53;;;;;;;;;10.00;9.00;26.30;48.90;;;;;;111516;1238;44852;-69
2023/06/02 08:24:24;;;;;;;;;10.00;9.00;26.30;48.70;;;;;;111361;1237;49321;-68
2023/06/02 08:26:52;;;;;;;;;12.33;10.00;26.40;48.70;;;;;;111369;1238;50352;-68
2023/06/02 08:29:20;;;;;;;;;10.00;9.00;26.40;48.70;;;;;;111527;1241;54130;-70
2023/06/02 08:31:47;;;;;;;;;10.67;8.33;26.40;48.20;;;;;;111461;1238;44901;-68
2023/06/02 08:34:20;;;;;;;;;12.50;12.00;26.40;48.60;;;;;;111326;1241;49393;-69
2023/06/02 08:36:56;;;;;;;;;10.00;9.00;26.40;48.60;;;;;;111513;1238;49462;-70
2023/06/02 08:39:25;;;;;;;;;10.00;9.00;26.50;48.70;;;;;;111460;1241;54053;-70
2023/06/02 08:41:53;;;;;;;;;9.25;8.25;26.50;48.20;;;;;;111449;1242;44854;-69
2023/06/02 08:44:20;;;;;;;;;9.50;8.50;26.50;48.80;;;;;;111552;1237;48610;-69
2023/06/02 08:46:50;;;;;;;;;11.75;10.75;26.60;48.70;;;;;;111545;1241;49611;-69
2023/06/02 08:49:18;;;;;;;;;10.67;10.00;26.60;48.60;;;;;;111291;1243;53721;-67
2023/06/02 08:51:47;;;;;;;;;13.00;10.75;26.70;48.60;;;;;;111323;1238;45060;-68
2023/06/02 08:54:15;;;;;;;;;12.00;10.00;26.70;48.70;;;;;;111533;1237;49596;-68
2023/06/02 08:56:44;;;;;;;;;9.00;8.00;26.70;48.80;;;;;;111367;1240;49420;-70
2023/06/02 08:59:11;;;;;;;;;10.75;9.50;26.70;48.60;;;;;;111336;1241;54179;-68
2023/06/02 09:01:42;;;;;;;;;9.75;8.50;26.80;48.60;;;;;;111440;1243;44564;-68
2023/06/02 09:04:09;;;;;;;;;13.00;12.00;26.80;48.60;;;;;;111488;1243;48853;-68
2023/06/02 09:06:36;;;;;;;;;10.75;9.75;26.80;48.50;;;;;;111739;1241;49584;-69
2023/06/02 09:09:04;;;;;;;;;10.00;9.00;26.90;48.60;;;;;;111554;1242;54205;-67
2023/06/02 09:11:32;;;;;;;;;10.75;9.00;26.90;48.50;;;;;;111326;1240;44495;-68
2023/06/02 09:13:59;;;;;;;;;10.00;9.00;27.00;48.50;;;;;;111313;1240;49429;-68
2023/06/02 09:16:37;;;;;;;;;10.50;9.50;27.00;48.70;;;;;;111282;1242;49104;-67
2023/06/02 09:19:05;;;;;;;;;10.00;9.00;27.00;48.50;;;;;;111314;1243;53715;-68
2023/06/02 09:21:33;;;;;;;;;10.00;9.00;27.10;48.50;;;;;;111174;1244;44969;-68
2023/06/02 09:24:01;;;;;;;;;11.67;10.67;27.10;48.70;;;;;;111246;1244;49384;-70
2023/06/02 09:26:30;;;;;;;;;10.00;9.00;27.10;48.00;;;;;;111303;1243;49538;-69
2023/06/02 09:29:06;;;;;;;;;11.00;10.00;27.20;48.50;;;;;;111331;1244;54171;-74
2023/06/02 09:31:53;;;;;;;;;9.75;9.00;27.20;48.60;;;;;;111322;1242;44254;-68
2023/06/02 09:34:22;;;;;;;;;9.00;8.00;27.20;48.60;;;;;;111293;1244;48197;-68
2023/06/02 09:36:52;;;;;;;;;10.00;9.00;27.30;48.50;;;;;;111210;1241;49316;-68
2023/06/02 09:39:35;;;;;;;;;10.00;9.00;27.30;48.40;;;;;;111217;1244;53693;-68
2023/06/02 09:42:03;;;;;;;;;11.25;10.25;27.30;48.30;;;;;;111271;1238;44217;-68
2023/06/02 09:44:30;;;;;;;;;10.00;9.00;27.40;48.40;;;;;;111239;1240;49069;-68
2023/06/02 09:46:59;;;;;;;;;10.00;9.00;27.40;48.40;;;;;;111226;1244;50176;-70
2023/06/02 09:49:37;;;;;;;;;9.00;8.00;27.40;48.30;;;;;;111330;1244;54419;-70
2023/06/02 09:52:15;;;;;;;;;9.67;8.67;27.40;48.30;;;;;;111356;1240;44551;-69
2023/06/02 09:54:47;;;;;;;;;10.75;9.75;27.50;48.30;;;;;;111344;1238;48687;-70
2023/06/02 09:57:16;;;;;;;;;10.00;9.00;27.50;48.20;;;;;;111232;1243;49679;-68
2023/06/02 09:59:44;;;;;;;;;10.50;9.50;27.50;48.20;;;;;;111222;1242;54062;-69
2023/06/02 10:02:13;;;;;;;;;10.00;9.00;27.50;48.10;;;;;;111260;1243;45059;-66
2023/06/02 10:04:39;;;;;;;;;9.00;8.00;27.50;48.10;;;;;;111298;1244;50417;-69
2023/06/02 10:07:37;;;;;;;;;9.00;8.00;27.50;48.10;;;;;;111248;1238;49572;-68
2023/06/02 10:10:10;;;;;;;;;11.00;10.00;27.50;48.10;;;;;;111233;1243;53658;-68
2023/06/02 10:12:59;;;;;;;;;10.00;9.00;27.50;48.20;;;;;;111301;1240;44944;-67
2023/06/02 10:15:47;;;;;;;;;12.50;11.50;27.60;48.40;;;;;;111180;1244;49150;-67
2023/06/02 10:18:40;;;;;;;;;10.50;9.25;27.60;48.10;;;;;;111181;1241;49184;-68
2023/06/02 10:21:21;;;;;;;;;9.00;8.00;27.60;48.10;;;;;;111213;1238;53653;-68
2023/06/02 10:23:51;;;;;;;;;10.00;9.00;27.60;48.00;;;;;;111241;1244;44378;-67
2023/06/02 10:26:34;;;;;;;;;11.00;8.00;27.60;48.00;;;;;;111193;1244;49083;-67
2023/06/02 10:29:03;;;;;;;;;10.00;9.00;27.60;48.10;;;;;;111269;1244;50527;-67
2023/06/02 10:31:33;;;;;;;;;10.00;9.00;27.70;48.50;;;;;;111312;1244;53886;-69
2023/06/02 10:34:04;;;;;;;;;10.00;9.00;27.60;47.90;;;;;;111256;1244;44333;-68
2023/06/02 10:37:10;;;;;;;;;10.50;9.00;27.60;47.80;;;;;;111610;1244;50248;-68
2023/06/02 10:39:40;;;;;;;;;11.00;8.33;27.60;47.80;;;;;;111207;1240;49180;-67
2023/06/02 10:42:08;;;;;;;;;10.75;9.75;27.70;48.00;;;;;;111255;1244;54067;-68
2023/06/02 10:44:36;;;;;;;;;13.00;10.67;27.60;47.80;;;;;;111304;1244;45729;-69
2023/06/02 10:47:18;;;;;;;;;10.75;9.75;27.60;47.80;;;;;;111245;1244;48989;-68
2023/06/02 10:49:57;;;;;;;;;11.00;10.00;27.60;47.80;;;;;;111261;1240;49519;-68
2023/06/02 10:52:25;;;;;;;;;13.67;10.67;27.60;47.70;;;;;;111253;1244;53198;-68
2023/06/02 10:55:07;;;;;;;;;10.00;8.50;27.60;48.20;;;;;;111343;1245;44754;-69
2023/06/02 10:57:50;;;;;;;;;9.67;8.67;27.60;47.70;;;;;;111210;1244;49502;-68
2023/06/02 11:00:29;;;;;;;;;11.67;10.67;27.70;47.70;;;;;;111270;1244;50419;-68
2023/06/02 11:02:57;;;;;;;;;11.00;10.00;27.70;47.70;;;;;;111226;1244;53533;-68
2023/06/02 11:05:25;;;;;;;;;11.00;10.00;27.60;47.60;;;;;;111272;1244;44543;-68
2023/06/02 11:08:11;;;;;;;;;12.00;11.00;27.60;47.70;;;;;;111281;1244;50166;-68
2023/06/02 11:10:57;;;;;;;;;12.75;11.75;27.60;47.60;;;;;;111360;1241;49386;-68
2023/06/02 11:13:28;;;;;;;;;12.75;10.00;27.60;47.60;;;;;;111418;1241;54302;-67
2023/06/02 11:15:58;;;;;;;;;11.00;9.75;27.60;47.60;;;;;;111265;1243;45454;-68
2023/06/02 11:18:27;;;;;;;;;11.75;10.75;27.60;47.60;;;;;;111456;1238;49684;-67
2023/06/02 11:20:56;;;;;;;;;11.00;10.00;27.60;47.80;;;;;;111229;1241;50580;-68
2023/06/02 11:23:24;;;;;;;;;12.00;11.00;27.60;47.60;;;;;;111578;1238;54044;-68
2023/06/02 11:26:13;;;;;;;;;11.75;10.75;27.60;47.60;;;;;;111370;1238;44564;-67
2023/06/02 11:28:40;;;;;;;;;12.00;11.00;27.60;47.60;;;;;;111252;1243;49763;-68
2023/06/02 11:31:11;;;;;;;;;12.00;9.00;27.60;47.80;;;;;;111243;1238;49450;-69
2023/06/02 11:33:41;;;;;;;;;11.67;10.67;27.60;47.50;;;;;;111439;1243;54738;-68
2023/06/02 11:36:10;;;;;;;;;9.00;8.00;27.60;47.50;;;;;;111399;1238;46096;-68
2023/06/02 11:38:39;;;;;;;;;10.00;9.00;27.60;47.60;;;;;;111442;1243;49269;-68
2023/06/02 11:41:17;;;;;;;;;10.00;9.00;27.60;47.50;;;;;;111357;1238;49057;-69
2023/06/02 11:43:48;;;;;;;;;15.25;11.75;27.60;47.60;;;;;;111465;1237;54438;-68
2023/06/02 11:46:17;;;;;;;;;12.00;11.00;27.60;47.60;;;;;;111358;1238;44767;-68
2023/06/02 11:48:46;;;;;;;;;13.33;10.67;27.60;47.60;;;;;;111275;1238;49415;-67
2023/06/02 11:51:15;;;;;;;;;11.00;9.75;27.60;47.70;;;;;;111465;1241;49560;-68
2023/06/02 11:53:46;;;;;;;;;11.00;10.00;27.60;47.50;;;;;;111312;1243;53874;-68
2023/06/02 11:56:14;;;;;;;;;12.50;10.00;27.60;47.50;;;;;;111447;1237;44034;-68
2023/06/02 11:58:46;;;;;;;;;9.75;8.75;27.60;47.60;;;;;;111226;1240;50022;-68
2023/06/02 12:01:18;;;;;;;;;11.00;9.75;27.70;47.60;;;;;;111298;1243;49719;-69
2023/06/02 12:03:51;;;;;;;;;10.33;9.33;27.70;47.20;;;;;;111327;1241;55485;-69
2023/06/02 12:06:18;;;;;;;;;12.00;11.00;27.70;47.60;;;;;;111310;1243;45513;-68
2023/06/02 12:08:47;;;;;;;;;13.00;11.00;27.70;47.60;;;;;;111229;1244;49188;-68
2023/06/02 12:11:18;;;;;;;;;16.00;12.00;27.70;47.80;;;;;;111234;1244;49132;-69
2023/06/02 12:14:00;;;;;;;;;10.00;9.00;27.70;47.60;;;;;;111428;1239;53452;-68
2023/06/02 12:16:28;;;;;;;;;11.00;10.00;27.70;47.60;;;;;;111284;1241;44849;-68
2023/06/02 12:19:15;;;;;;;;;12.00;10.00;27.70;47.90;;;;;;111251;1243;49515;-68
2023/06/02 12:21:47;;;;;;;;;12.50;10.75;27.70;47.80;;;;;;111232;1243;50308;-67
2023/06/02 12:24:30;;;;;;;;;11.75;10.50;27.70;47.60;;;;;;111268;1243;53279;-67
2023/06/02 12:26:57;;;;;;;;;11.75;10.50;27.70;47.80;;;;;;111266;1241;44721;-68
2023/06/02 12:29:24;;;;;;;;;11.00;10.00;27.70;47.60;;;;;;111283;1243;49277;-68
2023/06/02 12:31:59;;;;;;;;;10.75;9.75;27.70;47.60;;;;;;111228;1245;49954;-68